CA92 weather

Paradise Skypark Airport
Paradise, California, United States

Public forecast

Using degrees Fahrenheit for public forecast. Weather courtesy of forecast.io.

Closest aviation weather report (METAR) to Paradise Skypark Airport

Closest report is Chico Municipal Airport, 12.2 nm (22.7 km) WNW. Retrieved 2019/10/17 16:47 UTC (56 minutes ago):

KCIC 171647Z 32011KT 40SM SCT080 16/04 A2996

Closest aviation forecast (TAF) to Paradise Skypark Airport

Forecast is more than 6 hours old.

Closest forecast is Beale Air Force Base, 35.5 nm (65.7 km) SSE. Retrieved 2019/10/17 11:06 UTC (7 hours ago):

TAF KBAB 171102Z 1711/1817 12009KT 9999 BKN040 QNH2980INS TEMPO 1711/1713 8000 -SHRA BKN020 BECMG 1719/1720 33009KT 9999 FEW100 QNH2989INS BECMG 1804/1805 VRB06KT 9999 SKC QNH2994INS BECMG 1815/1816 32009KT 9999 SKC QNH3000INS TX21/1721Z TN14/1711Z